sensor_id;sensor_type;location;lat;lon;timestamp;P1;durP1;ratioP1;P2;durP2;ratioP2
37791;SDS011;29527;55.766;37.570;2023-03-21T00:01:11;11.52;;;5.50;;
37791;SDS011;29527;55.766;37.570;2023-03-21T00:03:37;10.07;;;5.00;;
37791;SDS011;29527;55.766;37.570;2023-03-21T00:06:04;8.82;;;5.13;;
37791;SDS011;29527;55.766;37.570;2023-03-21T00:08:30;10.15;;;5.20;;
37791;SDS011;29527;55.766;37.570;2023-03-21T00:10:57;10.85;;;4.72;;
37791;SDS011;29527;55.766;37.570;2023-03-21T00:13:27;7.88;;;4.97;;
37791;SDS011;29527;55.766;37.570;2023-03-21T00:15:56;11.23;;;5.40;;
37791;SDS011;29527;55.766;37.570;2023-03-21T00:18:27;11.02;;;5.10;;
37791;SDS011;29527;55.766;37.570;2023-03-21T00:20:59;8.30;;;4.70;;
37791;SDS011;29527;55.766;37.570;2023-03-21T00:23:26;7.93;;;4.93;;
37791;SDS011;29527;55.766;37.570;2023-03-21T00:25:53;7.93;;;4.88;;
37791;SDS011;29527;55.766;37.570;2023-03-21T00:28:19;11.35;;;4.50;;
37791;SDS011;29527;55.766;37.570;2023-03-21T00:30:45;10.00;;;5.20;;
37791;SDS011;29527;55.766;37.570;2023-03-21T00:33:11;8.43;;;4.40;;
37791;SDS011;29527;55.766;37.570;2023-03-21T00:35:38;8.23;;;4.70;;
37791;SDS011;29527;55.766;37.570;2023-03-21T00:38:06;12.15;;;4.53;;
37791;SDS011;29527;55.766;37.570;2023-03-21T00:40:32;9.73;;;5.43;;
37791;SDS011;29527;55.766;37.570;2023-03-21T00:42:57;9.45;;;4.80;;
37791;SDS011;29527;55.766;37.570;2023-03-21T00:45:22;8.65;;;4.25;;
37791;SDS011;29527;55.766;37.570;2023-03-21T00:47:48;7.03;;;4.57;;
37791;SDS011;29527;55.766;37.570;2023-03-21T00:50:13;8.13;;;4.30;;
37791;SDS011;29527;55.766;37.570;2023-03-21T00:52:39;5.57;;;3.78;;
37791;SDS011;29527;55.766;37.570;2023-03-21T00:55:05;9.45;;;4.32;;
37791;SDS011;29527;55.766;37.570;2023-03-21T00:57:31;15.55;;;4.82;;
37791;SDS011;29527;55.766;37.570;2023-03-21T00:59:57;9.80;;;5.07;;
37791;SDS011;29527;55.766;37.570;2023-03-21T01:02:23;12.07;;;5.22;;
37791;SDS011;29527;55.766;37.570;2023-03-21T01:04:54;12.90;;;5.25;;
37791;SDS011;29527;55.766;37.570;2023-03-21T01:07:20;10.55;;;5.80;;
37791;SDS011;29527;55.766;37.570;2023-03-21T01:09:45;12.82;;;5.78;;
37791;SDS011;29527;55.766;37.570;2023-03-21T01:12:11;12.63;;;5.28;;
37791;SDS011;29527;55.766;37.570;2023-03-21T01:14:36;12.30;;;5.80;;
37791;SDS011;29527;55.766;37.570;2023-03-21T01:17:02;13.15;;;5.25;;
37791;SDS011;29527;55.766;37.570;2023-03-21T01:19:28;13.05;;;5.72;;
37791;SDS011;29527;55.766;37.570;2023-03-21T01:21:55;12.23;;;5.55;;
37791;SDS011;29527;55.766;37.570;2023-03-21T01:24:20;10.45;;;5.70;;
37791;SDS011;29527;55.766;37.570;2023-03-21T01:26:46;14.70;;;5.80;;
37791;SDS011;29527;55.766;37.570;2023-03-21T01:29:11;12.00;;;5.18;;
37791;SDS011;29527;55.766;37.570;2023-03-21T01:31:37;12.40;;;5.40;;
37791;SDS011;29527;55.766;37.570;2023-03-21T01:34:02;8.95;;;5.32;;
37791;SDS011;29527;55.766;37.570;2023-03-21T01:36:28;10.98;;;5.30;;
37791;SDS011;29527;55.766;37.570;2023-03-21T01:38:53;10.38;;;4.80;;
37791;SDS011;29527;55.766;37.570;2023-03-21T01:41:29;10.63;;;5.18;;
37791;SDS011;29527;55.766;37.570;2023-03-21T01:43:59;10.85;;;5.10;;
37791;SDS011;29527;55.766;37.570;2023-03-21T01:46:31;8.95;;;5.13;;
37791;SDS011;29527;55.766;37.570;2023-03-21T01:49:03;8.40;;;4.80;;
37791;SDS011;29527;55.766;37.570;2023-03-21T01:51:31;9.52;;;5.30;;
37791;SDS011;29527;55.766;37.570;2023-03-21T01:54:00;8.50;;;4.60;;
37791;SDS011;29527;55.766;37.570;2023-03-21T01:56:30;10.43;;;5.03;;
37791;SDS011;29527;55.766;37.570;2023-03-21T01:59:08;11.75;;;5.47;;
37791;SDS011;29527;55.766;37.570;2023-03-21T02:01:36;9.70;;;5.28;;
37791;SDS011;29527;55.766;37.570;2023-03-21T02:04:06;9.43;;;5.47;;
37791;SDS011;29527;55.766;37.570;2023-03-21T02:09:08;7.47;;;4.70;;
37791;SDS011;29527;55.766;37.570;2023-03-21T02:11:37;9.90;;;4.70;;
37791;SDS011;29527;55.766;37.570;2023-03-21T02:14:03;10.65;;;5.20;;
37791;SDS011;29527;55.766;37.570;2023-03-21T02:27:28;8.70;;;4.75;;
37791;SDS011;29527;55.766;37.570;2023-03-21T02:37:48;10.05;;;5.22;;
37791;SDS011;29527;55.766;37.570;2023-03-21T02:40:24;12.85;;;5.20;;
37791;SDS011;29527;55.766;37.570;2023-03-21T02:45:55;10.40;;;5.05;;
37791;SDS011;29527;55.766;37.570;2023-03-21T02:48:35;11.32;;;5.38;;
37791;SDS011;29527;55.766;37.570;2023-03-21T02:51:03;9.50;;;5.70;;
37791;SDS011;29527;55.766;37.570;2023-03-21T02:53:32;12.00;;;5.18;;
37791;SDS011;29527;55.766;37.570;2023-03-21T02:56:01;10.65;;;5.30;;
37791;SDS011;29527;55.766;37.570;2023-03-21T02:58:28;12.38;;;5.80;;
37791;SDS011;29527;55.766;37.570;2023-03-21T03:00:56;7.97;;;5.22;;
37791;SDS011;29527;55.766;37.570;2023-03-21T03:03:22;14.00;;;5.55;;
37791;SDS011;29527;55.766;37.570;2023-03-21T03:05:48;8.43;;;4.97;;
37791;SDS011;29527;55.766;37.570;2023-03-21T03:13:48;10.00;;;5.32;;
37791;SDS011;29527;55.766;37.570;2023-03-21T03:19:23;9.10;;;5.78;;
37791;SDS011;29527;55.766;37.570;2023-03-21T03:24:30;10.30;;;5.57;;
37791;SDS011;29527;55.766;37.570;2023-03-21T03:27:03;7.53;;;5.57;;
37791;SDS011;29527;55.766;37.570;2023-03-21T03:29:34;7.97;;;5.47;;
37791;SDS011;29527;55.766;37.570;2023-03-21T03:32:12;9.27;;;4.82;;
37791;SDS011;29527;55.766;37.570;2023-03-21T03:34:46;13.02;;;5.22;;
37791;SDS011;29527;55.766;37.570;2023-03-21T03:37:15;7.70;;;5.05;;
37791;SDS011;29527;55.766;37.570;2023-03-21T03:39:45;8.90;;;4.95;;
37791;SDS011;29527;55.766;37.570;2023-03-21T03:42:21;13.50;;;5.82;;
37791;SDS011;29527;55.766;37.570;2023-03-21T03:44:51;13.50;;;5.60;;
37791;SDS011;29527;55.766;37.570;2023-03-21T03:48:00;10.35;;;5.70;;
37791;SDS011;29527;55.766;37.570;2023-03-21T03:52:47;11.43;;;5.60;;
37791;SDS011;29527;55.766;37.570;2023-03-21T03:55:16;11.00;;;5.72;;
37791;SDS011;29527;55.766;37.570;2023-03-21T03:57:45;13.55;;;6.38;;
37791;SDS011;29527;55.766;37.570;2023-03-21T04:00:12;8.15;;;5.13;;
37791;SDS011;29527;55.766;37.570;2023-03-21T04:02:40;9.57;;;5.72;;
37791;SDS011;29527;55.766;37.570;2023-03-21T04:05:06;12.68;;;6.25;;
37791;SDS011;29527;55.766;37.570;2023-03-21T04:07:32;9.85;;;5.88;;
37791;SDS011;29527;55.766;37.570;2023-03-21T04:09:57;10.32;;;5.80;;
37791;SDS011;29527;55.766;37.570;2023-03-21T04:12:23;12.70;;;5.85;;
37791;SDS011;29527;55.766;37.570;2023-03-21T04:14:49;16.10;;;6.15;;
37791;SDS011;29527;55.766;37.570;2023-03-21T04:17:15;11.10;;;5.40;;
37791;SDS011;29527;55.766;37.570;2023-03-21T04:19:41;9.52;;;5.15;;
37791;SDS011;29527;55.766;37.570;2023-03-21T04:22:07;24.13;;;6.60;;
37791;SDS011;29527;55.766;37.570;2023-03-21T04:24:33;12.02;;;6.13;;
37791;SDS011;29527;55.766;37.570;2023-03-21T04:27:01;16.23;;;6.40;;
37791;SDS011;29527;55.766;37.570;2023-03-21T04:29:27;12.32;;;6.30;;
37791;SDS011;29527;55.766;37.570;2023-03-21T04:31:54;10.20;;;5.50;;
37791;SDS011;29527;55.766;37.570;2023-03-21T04:34:19;12.63;;;5.93;;
37791;SDS011;29527;55.766;37.570;2023-03-21T04:36:50;11.93;;;5.57;;
37791;SDS011;29527;55.766;37.570;2023-03-21T04:39:18;8.70;;;5.82;;
37791;SDS011;29527;55.766;37.570;2023-03-21T04:41:44;9.05;;;5.63;;
37791;SDS011;29527;55.766;37.570;2023-03-21T04:44:11;11.43;;;6.50;;
37791;SDS011;29527;55.766;37.570;2023-03-21T04:46:39;10.55;;;5.97;;
37791;SDS011;29527;55.766;37.570;2023-03-21T04:49:05;11.63;;;6.30;;
37791;SDS011;29527;55.766;37.570;2023-03-21T04:51:31;14.98;;;5.97;;
37791;SDS011;29527;55.766;37.570;2023-03-21T04:53:57;12.27;;;5.93;;
37791;SDS011;29527;55.766;37.570;2023-03-21T04:56:23;11.13;;;6.25;;
37791;SDS011;29527;55.766;37.570;2023-03-21T04:58:56;12.60;;;6.57;;
37791;SDS011;29527;55.766;37.570;2023-03-21T05:01:25;11.32;;;6.35;;
37791;SDS011;29527;55.766;37.570;2023-03-21T05:03:57;12.07;;;6.00;;
37791;SDS011;29527;55.766;37.570;2023-03-21T05:06:24;9.98;;;6.03;;
37791;SDS011;29527;55.766;37.570;2023-03-21T05:08:52;15.73;;;6.95;;
37791;SDS011;29527;55.766;37.570;2023-03-21T05:11:24;12.45;;;6.25;;
37791;SDS011;29527;55.766;37.570;2023-03-21T05:13:51;16.48;;;7.72;;
37791;SDS011;29527;55.766;37.570;2023-03-21T05:16:16;22.85;;;6.90;;
37791;SDS011;29527;55.766;37.570;2023-03-21T05:18:42;13.35;;;7.32;;
37791;SDS011;29527;55.766;37.570;2023-03-21T05:21:07;15.65;;;7.25;;
37791;SDS011;29527;55.766;37.570;2023-03-21T05:23:35;13.65;;;7.30;;
37791;SDS011;29527;55.766;37.570;2023-03-21T05:26:08;16.25;;;7.28;;
37791;SDS011;29527;55.766;37.570;2023-03-21T05:28:35;14.30;;;6.90;;
37791;SDS011;29527;55.766;37.570;2023-03-21T05:31:02;13.38;;;6.63;;
37791;SDS011;29527;55.766;37.570;2023-03-21T05:33:28;16.90;;;7.05;;
37791;SDS011;29527;55.766;37.570;2023-03-21T05:35:54;17.40;;;7.45;;
37791;SDS011;29527;55.766;37.570;2023-03-21T05:38:20;17.88;;;7.10;;
37791;SDS011;29527;55.766;37.570;2023-03-21T05:40:46;20.75;;;6.80;;
37791;SDS011;29527;55.766;37.570;2023-03-21T05:43:12;16.23;;;7.30;;
37791;SDS011;29527;55.766;37.570;2023-03-21T05:45:38;12.15;;;6.95;;
37791;SDS011;29527;55.766;37.570;2023-03-21T05:48:03;16.92;;;7.65;;
37791;SDS011;29527;55.766;37.570;2023-03-21T05:50:29;13.30;;;6.50;;
37791;SDS011;29527;55.766;37.570;2023-03-21T05:52:54;18.27;;;7.63;;
37791;SDS011;29527;55.766;37.570;2023-03-21T05:55:20;12.05;;;7.18;;
37791;SDS011;29527;55.766;37.570;2023-03-21T05:57:45;17.92;;;7.60;;
37791;SDS011;29527;55.766;37.570;2023-03-21T06:00:11;21.88;;;7.95;;
37791;SDS011;29527;55.766;37.570;2023-03-21T06:02:37;11.93;;;7.45;;
37791;SDS011;29527;55.766;37.570;2023-03-21T06:05:04;22.40;;;8.52;;
37791;SDS011;29527;55.766;37.570;2023-03-21T06:07:30;14.35;;;7.13;;
37791;SDS011;29527;55.766;37.570;2023-03-21T06:09:56;18.20;;;7.28;;
37791;SDS011;29527;55.766;37.570;2023-03-21T06:12:22;12.07;;;6.53;;
37791;SDS011;29527;55.766;37.570;2023-03-21T06:14:47;15.88;;;7.57;;
37791;SDS011;29527;55.766;37.570;2023-03-21T06:17:12;10.32;;;6.25;;
37791;SDS011;29527;55.766;37.570;2023-03-21T06:19:38;12.85;;;6.93;;
37791;SDS011;29527;55.766;37.570;2023-03-21T06:22:03;16.80;;;6.85;;
37791;SDS011;29527;55.766;37.570;2023-03-21T06:24:30;13.90;;;7.70;;
37791;SDS011;29527;55.766;37.570;2023-03-21T06:26:55;11.68;;;6.75;;
37791;SDS011;29527;55.766;37.570;2023-03-21T06:29:21;13.35;;;6.93;;
37791;SDS011;29527;55.766;37.570;2023-03-21T06:31:46;12.45;;;7.68;;
37791;SDS011;29527;55.766;37.570;2023-03-21T06:34:12;17.70;;;7.28;;
37791;SDS011;29527;55.766;37.570;2023-03-21T06:36:38;15.30;;;8.40;;
37791;SDS011;29527;55.766;37.570;2023-03-21T06:39:04;18.92;;;7.50;;
37791;SDS011;29527;55.766;37.570;2023-03-21T06:41:31;14.57;;;7.95;;
37791;SDS011;29527;55.766;37.570;2023-03-21T06:43:57;17.73;;;8.23;;
37791;SDS011;29527;55.766;37.570;2023-03-21T06:46:22;19.00;;;8.15;;
37791;SDS011;29527;55.766;37.570;2023-03-21T06:48:48;15.05;;;7.47;;
37791;SDS011;29527;55.766;37.570;2023-03-21T06:51:14;9.77;;;6.97;;
37791;SDS011;29527;55.766;37.570;2023-03-21T06:53:40;14.60;;;8.20;;
37791;SDS011;29527;55.766;37.570;2023-03-21T06:56:06;15.05;;;7.55;;
37791;SDS011;29527;55.766;37.570;2023-03-21T06:58:33;13.30;;;7.60;;
37791;SDS011;29527;55.766;37.570;2023-03-21T07:01:00;11.85;;;7.35;;
37791;SDS011;29527;55.766;37.570;2023-03-21T07:03:27;15.77;;;7.38;;
37791;SDS011;29527;55.766;37.570;2023-03-21T07:05:53;21.40;;;8.25;;
37791;SDS011;29527;55.766;37.570;2023-03-21T07:08:18;11.77;;;7.13;;
37791;SDS011;29527;55.766;37.570;2023-03-21T07:10:44;12.43;;;7.55;;
37791;SDS011;29527;55.766;37.570;2023-03-21T07:13:11;19.38;;;8.20;;
37791;SDS011;29527;55.766;37.570;2023-03-21T07:15:37;14.80;;;7.97;;
37791;SDS011;29527;55.766;37.570;2023-03-21T07:18:03;15.80;;;8.88;;
37791;SDS011;29527;55.766;37.570;2023-03-21T07:20:29;24.27;;;8.05;;
37791;SDS011;29527;55.766;37.570;2023-03-21T07:22:56;18.25;;;8.23;;
37791;SDS011;29527;55.766;37.570;2023-03-21T07:25:21;20.83;;;9.32;;
37791;SDS011;29527;55.766;37.570;2023-03-21T07:27:47;20.48;;;8.07;;
37791;SDS011;29527;55.766;37.570;2023-03-21T07:30:13;13.07;;;8.52;;
37791;SDS011;29527;55.766;37.570;2023-03-21T07:32:39;20.63;;;9.18;;
37791;SDS011;29527;55.766;37.570;2023-03-21T07:35:06;19.30;;;8.90;;
37791;SDS011;29527;55.766;37.570;2023-03-21T07:37:33;13.13;;;8.65;;
37791;SDS011;29527;55.766;37.570;2023-03-21T07:39:58;14.60;;;7.78;;
37791;SDS011;29527;55.766;37.570;2023-03-21T07:42:24;17.70;;;8.43;;
37791;SDS011;29527;55.766;37.570;2023-03-21T07:44:49;13.45;;;8.23;;
37791;SDS011;29527;55.766;37.570;2023-03-21T07:47:16;13.02;;;8.35;;
37791;SDS011;29527;55.766;37.570;2023-03-21T07:49:42;18.95;;;8.68;;
37791;SDS011;29527;55.766;37.570;2023-03-21T07:52:07;15.63;;;8.82;;
37791;SDS011;29527;55.766;37.570;2023-03-21T07:54:33;17.45;;;9.30;;
37791;SDS011;29527;55.766;37.570;2023-03-21T07:56:58;14.13;;;8.75;;
37791;SDS011;29527;55.766;37.570;2023-03-21T07:59:24;13.20;;;8.43;;
37791;SDS011;29527;55.766;37.570;2023-03-21T08:01:50;14.38;;;9.50;;
37791;SDS011;29527;55.766;37.570;2023-03-21T08:04:15;15.77;;;9.05;;
37791;SDS011;29527;55.766;37.570;2023-03-21T08:06:41;15.27;;;9.43;;
37791;SDS011;29527;55.766;37.570;2023-03-21T08:09:07;13.77;;;9.13;;
37791;SDS011;29527;55.766;37.570;2023-03-21T08:11:32;17.02;;;8.77;;
37791;SDS011;29527;55.766;37.570;2023-03-21T08:13:59;12.80;;;7.78;;
37791;SDS011;29527;55.766;37.570;2023-03-21T08:16:25;15.88;;;8.00;;
37791;SDS011;29527;55.766;37.570;2023-03-21T08:18:51;15.50;;;7.82;;
37791;SDS011;29527;55.766;37.570;2023-03-21T08:21:17;16.75;;;8.00;;
37791;SDS011;29527;55.766;37.570;2023-03-21T08:23:43;10.18;;;7.03;;
37791;SDS011;29527;55.766;37.570;2023-03-21T08:26:08;13.98;;;7.78;;
37791;SDS011;29527;55.766;37.570;2023-03-21T08:28:34;12.15;;;7.20;;
37791;SDS011;29527;55.766;37.570;2023-03-21T08:31:05;13.40;;;7.63;;
37791;SDS011;29527;55.766;37.570;2023-03-21T08:33:32;11.38;;;6.50;;
37791;SDS011;29527;55.766;37.570;2023-03-21T08:35:58;10.05;;;6.88;;
37791;SDS011;29527;55.766;37.570;2023-03-21T08:38:25;9.27;;;6.65;;
37791;SDS011;29527;55.766;37.570;2023-03-21T08:40:54;11.48;;;6.97;;
37791;SDS011;29527;55.766;37.570;2023-03-21T08:43:20;10.35;;;7.20;;
37791;SDS011;29527;55.766;37.570;2023-03-21T08:45:46;12.02;;;6.68;;
37791;SDS011;29527;55.766;37.570;2023-03-21T08:48:12;12.35;;;6.65;;
37791;SDS011;29527;55.766;37.570;2023-03-21T08:50:38;15.90;;;7.05;;
37791;SDS011;29527;55.766;37.570;2023-03-21T08:53:03;11.88;;;7.65;;
37791;SDS011;29527;55.766;37.570;2023-03-21T08:55:29;14.43;;;8.50;;
37791;SDS011;29527;55.766;37.570;2023-03-21T08:57:57;11.25;;;7.75;;
37791;SDS011;29527;55.766;37.570;2023-03-21T09:00:23;12.00;;;8.43;;
37791;SDS011;29527;55.766;37.570;2023-03-21T09:02:50;13.18;;;8.82;;
37791;SDS011;29527;55.766;37.570;2023-03-21T09:05:16;14.20;;;8.25;;
37791;SDS011;29527;55.766;37.570;2023-03-21T09:07:42;12.88;;;7.60;;
37791;SDS011;29527;55.766;37.570;2023-03-21T09:10:09;13.05;;;7.88;;
37791;SDS011;29527;55.766;37.570;2023-03-21T09:12:38;10.93;;;7.38;;
37791;SDS011;29527;55.766;37.570;2023-03-21T09:15:05;14.98;;;8.27;;
37791;SDS011;29527;55.766;37.570;2023-03-21T09:17:32;10.40;;;7.90;;
37791;SDS011;29527;55.766;37.570;2023-03-21T09:19:57;10.75;;;7.70;;
37791;SDS011;29527;55.766;37.570;2023-03-21T09:22:25;15.05;;;8.85;;
37791;SDS011;29527;55.766;37.570;2023-03-21T09:24:51;16.60;;;8.40;;
37791;SDS011;29527;55.766;37.570;2023-03-21T09:27:17;17.00;;;9.35;;
37791;SDS011;29527;55.766;37.570;2023-03-21T09:29:45;13.20;;;8.88;;
37791;SDS011;29527;55.766;37.570;2023-03-21T09:32:10;16.55;;;10.02;;
37791;SDS011;29527;55.766;37.570;2023-03-21T09:34:37;13.57;;;9.25;;
37791;SDS011;29527;55.766;37.570;2023-03-21T09:37:05;15.80;;;9.07;;
37791;SDS011;29527;55.766;37.570;2023-03-21T09:39:40;14.40;;;9.15;;
37791;SDS011;29527;55.766;37.570;2023-03-21T09:45:11;10.75;;;7.88;;
37791;SDS011;29527;55.766;37.570;2023-03-21T09:47:43;8.85;;;6.57;;
37791;SDS011;29527;55.766;37.570;2023-03-21T09:50:23;10.63;;;7.32;;
37791;SDS011;29527;55.766;37.570;2023-03-21T09:52:59;10.13;;;7.53;;
37791;SDS011;29527;55.766;37.570;2023-03-21T09:55:29;10.70;;;7.47;;
37791;SDS011;29527;55.766;37.570;2023-03-21T10:00:26;9.20;;;6.88;;
37791;SDS011;29527;55.766;37.570;2023-03-21T10:03:02;9.00;;;6.60;;
37791;SDS011;29527;55.766;37.570;2023-03-21T10:05:31;10.68;;;6.55;;
37791;SDS011;29527;55.766;37.570;2023-03-21T10:08:00;7.00;;;6.03;;
37791;SDS011;29527;55.766;37.570;2023-03-21T10:10:37;9.25;;;6.13;;
37791;SDS011;29527;55.766;37.570;2023-03-21T10:13:13;8.88;;;6.60;;
37791;SDS011;29527;55.766;37.570;2023-03-21T10:15:41;8.13;;;6.47;;
37791;SDS011;29527;55.766;37.570;2023-03-21T10:18:07;10.50;;;6.82;;
37791;SDS011;29527;55.766;37.570;2023-03-21T10:20:40;8.65;;;6.22;;
37791;SDS011;29527;55.766;37.570;2023-03-21T10:23:07;7.47;;;6.10;;
37791;SDS011;29527;55.766;37.570;2023-03-21T10:25:39;8.38;;;6.00;;
37791;SDS011;29527;55.766;37.570;2023-03-21T10:28:10;10.32;;;6.60;;
37791;SDS011;29527;55.766;37.570;2023-03-21T10:30:54;8.13;;;5.95;;
37791;SDS011;29527;55.766;37.570;2023-03-21T10:33:23;9.13;;;7.22;;
37791;SDS011;29527;55.766;37.570;2023-03-21T10:35:52;9.65;;;6.88;;
37791;SDS011;29527;55.766;37.570;2023-03-21T10:38:22;9.88;;;6.88;;
37791;SDS011;29527;55.766;37.570;2023-03-21T10:40:49;8.70;;;5.85;;
37791;SDS011;29527;55.766;37.570;2023-03-21T10:43:16;9.85;;;6.45;;
37791;SDS011;29527;55.766;37.570;2023-03-21T10:45:45;10.15;;;5.82;;
37791;SDS011;29527;55.766;37.570;2023-03-21T10:48:11;8.27;;;6.05;;
37791;SDS011;29527;55.766;37.570;2023-03-21T10:50:37;8.88;;;6.20;;
37791;SDS011;29527;55.766;37.570;2023-03-21T10:53:02;9.40;;;6.45;;
37791;SDS011;29527;55.766;37.570;2023-03-21T10:55:41;8.02;;;6.18;;
37791;SDS011;29527;55.766;37.570;2023-03-21T10:58:08;10.02;;;6.47;;
37791;SDS011;29527;55.766;37.570;2023-03-21T11:00:43;7.07;;;5.95;;
37791;SDS011;29527;55.766;37.570;2023-03-21T11:05:47;9.13;;;6.05;;
37791;SDS011;29527;55.766;37.570;2023-03-21T11:08:16;9.23;;;5.68;;
37791;SDS011;29527;55.766;37.570;2023-03-21T11:13:43;9.07;;;5.65;;
37791;SDS011;29527;55.766;37.570;2023-03-21T11:16:11;8.75;;;6.00;;
37791;SDS011;29527;55.766;37.570;2023-03-21T11:18:43;8.20;;;6.13;;
37791;SDS011;29527;55.766;37.570;2023-03-21T11:21:13;10.32;;;5.90;;
37791;SDS011;29527;55.766;37.570;2023-03-21T11:23:41;9.45;;;5.68;;
37791;SDS011;29527;55.766;37.570;2023-03-21T11:26:24;9.95;;;6.60;;
37791;SDS011;29527;55.766;37.570;2023-03-21T11:28:52;9.05;;;5.68;;
37791;SDS011;29527;55.766;37.570;2023-03-21T11:31:19;7.50;;;5.35;;
37791;SDS011;29527;55.766;37.570;2023-03-21T11:33:54;10.93;;;6.22;;
37791;SDS011;29527;55.766;37.570;2023-03-21T11:36:26;9.43;;;5.78;;
37791;SDS011;29527;55.766;37.570;2023-03-21T11:38:59;10.55;;;6.18;;
37791;SDS011;29527;55.766;37.570;2023-03-21T11:41:38;10.93;;;5.30;;
37791;SDS011;29527;55.766;37.570;2023-03-21T11:44:05;7.88;;;5.68;;
37791;SDS011;29527;55.766;37.570;2023-03-21T11:46:31;9.48;;;5.50;;
37791;SDS011;29527;55.766;37.570;2023-03-21T11:49:07;6.93;;;4.85;;
37791;SDS011;29527;55.766;37.570;2023-03-21T11:59:17;8.85;;;5.75;;
37791;SDS011;29527;55.766;37.570;2023-03-21T12:04:42;9.40;;;5.10;;
37791;SDS011;29527;55.766;37.570;2023-03-21T12:10:35;11.93;;;5.75;;
37791;SDS011;29527;55.766;37.570;2023-03-21T12:23:37;10.40;;;5.07;;
37791;SDS011;29527;55.766;37.570;2023-03-21T12:31:48;9.85;;;4.50;;
37791;SDS011;29527;55.766;37.570;2023-03-21T12:40:11;9.20;;;4.70;;
37791;SDS011;29527;55.766;37.570;2023-03-21T12:43:00;8.38;;;4.18;;
37791;SDS011;29527;55.766;37.570;2023-03-21T12:45:49;9.25;;;4.35;;
37791;SDS011;29527;55.766;37.570;2023-03-21T12:48:21;9.57;;;4.90;;
37791;SDS011;29527;55.766;37.570;2023-03-21T12:51:02;10.43;;;4.75;;
37791;SDS011;29527;55.766;37.570;2023-03-21T12:56:04;6.30;;;4.55;;
37791;SDS011;29527;55.766;37.570;2023-03-21T12:58:36;8.73;;;4.97;;
37791;SDS011;29527;55.766;37.570;2023-03-21T13:01:24;10.27;;;4.85;;
37791;SDS011;29527;55.766;37.570;2023-03-21T13:04:05;9.10;;;5.15;;
37791;SDS011;29527;55.766;37.570;2023-03-21T13:06:40;12.45;;;5.15;;
37791;SDS011;29527;55.766;37.570;2023-03-21T13:09:11;9.23;;;5.13;;
37791;SDS011;29527;55.766;37.570;2023-03-21T13:14:13;11.00;;;4.85;;
37791;SDS011;29527;55.766;37.570;2023-03-21T13:16:51;7.57;;;4.63;;
37791;SDS011;29527;55.766;37.570;2023-03-21T13:19:41;11.85;;;5.32;;
37791;SDS011;29527;55.766;37.570;2023-03-21T13:22:23;14.07;;;5.75;;
37791;SDS011;29527;55.766;37.570;2023-03-21T13:24:58;9.90;;;5.20;;
37791;SDS011;29527;55.766;37.570;2023-03-21T13:27:32;10.60;;;5.45;;
37791;SDS011;29527;55.766;37.570;2023-03-21T13:32:35;9.73;;;5.00;;
37791;SDS011;29527;55.766;37.570;2023-03-21T13:37:57;9.23;;;5.30;;
37791;SDS011;29527;55.766;37.570;2023-03-21T13:46:11;6.78;;;4.57;;
37791;SDS011;29527;55.766;37.570;2023-03-21T13:54:41;9.25;;;4.50;;
37791;SDS011;29527;55.766;37.570;2023-03-21T13:56:49;10.13;;;5.35;;
37791;SDS011;29527;55.766;37.570;2023-03-21T13:59:18;9.40;;;5.10;;
37791;SDS011;29527;55.766;37.570;2023-03-21T14:05:16;8.88;;;4.35;;
37791;SDS011;29527;55.766;37.570;2023-03-21T14:07:46;11.30;;;5.10;;
37791;SDS011;29527;55.766;37.570;2023-03-21T14:10:27;10.68;;;4.25;;
37791;SDS011;29527;55.766;37.570;2023-03-21T14:12:58;8.80;;;4.32;;
37791;SDS011;29527;55.766;37.570;2023-03-21T14:15:25;8.82;;;4.68;;
37791;SDS011;29527;55.766;37.570;2023-03-21T14:17:57;7.00;;;4.20;;
37791;SDS011;29527;55.766;37.570;2023-03-21T14:20:26;8.60;;;4.40;;
37791;SDS011;29527;55.766;37.570;2023-03-21T14:22:55;11.35;;;4.15;;
37791;SDS011;29527;55.766;37.570;2023-03-21T14:25:21;12.10;;;5.03;;
37791;SDS011;29527;55.766;37.570;2023-03-21T14:27:53;10.50;;;5.07;;
37791;SDS011;29527;55.766;37.570;2023-03-21T14:30:35;14.35;;;5.40;;
37791;SDS011;29527;55.766;37.570;2023-03-21T14:35:50;14.57;;;4.78;;
37791;SDS011;29527;55.766;37.570;2023-03-21T14:38:23;11.13;;;5.18;;
37791;SDS011;29527;55.766;37.570;2023-03-21T14:40:56;11.20;;;5.10;;
37791;SDS011;29527;55.766;37.570;2023-03-21T14:43:23;8.57;;;4.47;;
37791;SDS011;29527;55.766;37.570;2023-03-21T14:45:51;7.75;;;4.55;;
37791;SDS011;29527;55.766;37.570;2023-03-21T14:48:19;11.80;;;6.10;;
37791;SDS011;29527;55.766;37.570;2023-03-21T14:50:49;10.55;;;5.40;;
37791;SDS011;29527;55.766;37.570;2023-03-21T14:53:20;9.43;;;5.30;;
37791;SDS011;29527;55.766;37.570;2023-03-21T14:55:54;12.70;;;5.13;;
37791;SDS011;29527;55.766;37.570;2023-03-21T14:58:23;13.55;;;5.45;;
37791;SDS011;29527;55.766;37.570;2023-03-21T15:00:50;10.93;;;5.22;;
37791;SDS011;29527;55.766;37.570;2023-03-21T15:03:18;11.63;;;5.90;;
37791;SDS011;29527;55.766;37.570;2023-03-21T15:05:46;8.82;;;5.28;;
37791;SDS011;29527;55.766;37.570;2023-03-21T15:08:18;14.38;;;5.50;;
37791;SDS011;29527;55.766;37.570;2023-03-21T15:11:19;19.48;;;6.47;;
37791;SDS011;29527;55.766;37.570;2023-03-21T15:13:43;16.88;;;5.85;;
37791;SDS011;29527;55.766;37.570;2023-03-21T15:16:14;13.35;;;5.72;;
37791;SDS011;29527;55.766;37.570;2023-03-21T15:18:40;11.43;;;4.82;;
37791;SDS011;29527;55.766;37.570;2023-03-21T15:21:07;9.88;;;5.82;;
37791;SDS011;29527;55.766;37.570;2023-03-21T15:23:46;15.73;;;5.75;;
37791;SDS011;29527;55.766;37.570;2023-03-21T15:26:13;14.63;;;5.75;;
37791;SDS011;29527;55.766;37.570;2023-03-21T15:28:41;12.18;;;5.30;;
37791;SDS011;29527;55.766;37.570;2023-03-21T15:31:17;15.32;;;5.90;;
37791;SDS011;29527;55.766;37.570;2023-03-21T15:33:46;11.00;;;5.20;;
37791;SDS011;29527;55.766;37.570;2023-03-21T15:36:16;11.27;;;4.88;;
37791;SDS011;29527;55.766;37.570;2023-03-21T15:38:47;6.80;;;4.43;;
37791;SDS011;29527;55.766;37.570;2023-03-21T15:41:15;6.90;;;4.32;;
37791;SDS011;29527;55.766;37.570;2023-03-21T15:43:41;8.82;;;4.60;;
37791;SDS011;29527;55.766;37.570;2023-03-21T15:46:14;11.45;;;5.25;;
37791;SDS011;29527;55.766;37.570;2023-03-21T15:48:42;8.07;;;4.70;;
37791;SDS011;29527;55.766;37.570;2023-03-21T15:51:21;10.43;;;4.88;;
37791;SDS011;29527;55.766;37.570;2023-03-21T15:53:49;8.52;;;4.80;;
37791;SDS011;29527;55.766;37.570;2023-03-21T15:56:18;10.88;;;4.60;;
37791;SDS011;29527;55.766;37.570;2023-03-21T15:58:46;12.85;;;4.78;;
37791;SDS011;29527;55.766;37.570;2023-03-21T16:01:16;8.82;;;4.60;;
37791;SDS011;29527;55.766;37.570;2023-03-21T16:03:45;9.75;;;5.40;;
37791;SDS011;29527;55.766;37.570;2023-03-21T16:06:16;11.80;;;4.85;;
37791;SDS011;29527;55.766;37.570;2023-03-21T16:13:38;8.85;;;5.25;;
37791;SDS011;29527;55.766;37.570;2023-03-21T16:16:03;10.85;;;5.40;;
37791;SDS011;29527;55.766;37.570;2023-03-21T16:18:29;10.38;;;5.18;;
37791;SDS011;29527;55.766;37.570;2023-03-21T16:20:55;12.95;;;6.15;;
37791;SDS011;29527;55.766;37.570;2023-03-21T16:23:23;12.80;;;5.07;;
37791;SDS011;29527;55.766;37.570;2023-03-21T16:25:48;8.30;;;4.88;;
37791;SDS011;29527;55.766;37.570;2023-03-21T16:28:20;10.52;;;5.35;;
37791;SDS011;29527;55.766;37.570;2023-03-21T16:30:45;10.30;;;5.32;;
37791;SDS011;29527;55.766;37.570;2023-03-21T16:33:11;11.63;;;5.60;;